Time,TemperatureF,DewpointF,PressureIn,WindDirection,WindDirectionDegrees,WindSpeedMPH,WindSpeedGustMPH,Humidity,HourlyPrecipIn,Conditions,Clouds,dailyrainin,SoftwareType,DateUTC
2013-08-02 00:05:00,81.0,75.7,29.96,ENE,76,0.0,14.0,84,0.00,,,0.26,Wunderground v.1.15,2013-08-02 04:05:00,
2013-08-02 00:10:00,81.3,76.0,29.96,East,79,0.0,14.0,84,0.00,,,0.26,Wunderground v.1.15,2013-08-02 04:10:00,
2013-08-02 00:15:00,80.9,76.0,29.95,East,79,0.0,14.0,85,0.00,,,0.26,Wunderground v.1.15,2013-08-02 04:15:00,
2013-08-02 00:20:00,80.5,75.9,29.95,East,101,0.0,14.0,86,0.00,,,0.26,Wunderground v.1.15,2013-08-02 04:20:00,
2013-08-02 00:25:00,80.3,75.7,29.96,East,101,0.0,14.0,86,0.00,,,0.26,Wunderground v.1.15,2013-08-02 04:25:00,
2013-08-02 00:30:00,80.2,75.6,29.96,East,101,0.0,14.0,86,0.00,,,0.26,Wunderground v.1.15,2013-08-02 04:30:00,
2013-08-02 00:35:00,80.2,75.6,29.96,East,101,0.0,14.0,86,0.00,,,0.26,Wunderground v.1.15,2013-08-02 04:35:00,
2013-08-02 00:40:00,80.3,75.7,29.96,East,101,0.0,14.0,86,0.00,,,0.26,Wunderground v.1.15,2013-08-02 04:40:00,
2013-08-02 00:50:00,80.7,76.1,29.96,East,101,0.0,14.0,86,0.00,,,0.26,Wunderground v.1.15,2013-08-02 04:50:00,
2013-08-02 00:55:00,80.7,76.1,29.96,East,101,0.0,14.0,86,0.00,,,0.26,Wunderground v.1.15,2013-08-02 04:55:00,
2013-08-02 01:05:00,81.0,76.8,29.95,East,101,0.0,14.0,87,0.00,,,0.00,Wunderground v.1.15,2013-08-02 05:05:00,
2013-08-02 01:10:00,81.1,77.2,29.95,East,101,0.0,14.0,88,0.00,,,0.00,Wunderground v.1.15,2013-08-02 05:10:00,
2013-08-02 01:15:00,81.1,77.5,29.95,East,101,0.0,14.0,89,0.00,,,0.00,Wunderground v.1.15,2013-08-02 05:15:00,
2013-08-02 01:25:00,80.9,77.7,29.95,East,101,0.0,14.0,90,0.00,,,0.00,Wunderground v.1.15,2013-08-02 05:25:00,
2013-08-02 01:30:00,80.8,77.9,29.95,East,101,0.0,14.0,91,0.00,,,0.00,Wunderground v.1.15,2013-08-02 05:30:00,
2013-08-02 01:40:00,80.6,78.1,29.95,East,101,0.0,14.0,92,0.00,,,0.00,Wunderground v.1.15,2013-08-02 05:40:00,
2013-08-02 01:45:00,80.4,77.9,29.94,East,101,0.0,14.0,92,0.00,,,0.00,Wunderground v.1.15,2013-08-02 05:45:00,
2013-08-02 01:50:00,80.3,77.8,29.94,East,101,0.0,14.0,92,0.00,,,0.00,Wunderground v.1.15,2013-08-02 05:50:00,
2013-08-02 01:55:00,80.3,77.8,29.94,East,101,0.0,14.0,92,0.00,,,0.00,Wunderground v.1.15,2013-08-02 05:55:00,
2013-08-02 02:05:00,79.9,77.4,29.94,East,101,0.0,14.0,92,0.00,,,0.00,Wunderground v.1.15,2013-08-02 06:05:00,
2013-08-02 02:10:00,79.8,77.3,29.94,East,101,0.0,14.0,92,0.00,,,0.00,Wunderground v.1.15,2013-08-02 06:10:00,
2013-08-02 02:15:00,80.0,77.8,29.93,East,101,0.0,14.0,93,0.00,,,0.00,Wunderground v.1.15,2013-08-02 06:15:00,
2013-08-02 02:25:00,80.1,77.9,29.93,East,101,0.0,14.0,93,0.00,,,0.00,Wunderground v.1.15,2013-08-02 06:25:00,
2013-08-02 02:30:00,80.1,77.9,29.93,East,101,0.0,14.0,93,0.00,,,0.00,Wunderground v.1.15,2013-08-02 06:30:00,
2013-08-02 02:35:00,80.0,77.8,29.93,East,101,0.0,14.0,93,0.00,,,0.00,Wunderground v.1.15,2013-08-02 06:35:00,
2013-08-02 02:40:00,80.1,77.9,29.92,East,101,0.0,14.0,93,0.00,,,0.00,Wunderground v.1.15,2013-08-02 06:40:00,
2013-08-02 02:50:00,80.2,78.0,29.92,East,101,0.0,14.0,93,0.00,,,0.00,Wunderground v.1.15,2013-08-02 06:50:00,
2013-08-02 02:55:00,80.2,78.0,29.92,East,101,0.0,14.0,93,0.00,,,0.00,Wunderground v.1.15,2013-08-02 06:55:00,
2013-08-02 03:05:00,80.2,78.3,29.91,East,101,0.0,14.0,94,0.00,,,0.00,Wunderground v.1.15,2013-08-02 07:05:00,
2013-08-02 03:10:00,80.3,78.1,29.91,East,101,0.0,14.0,93,0.00,,,0.00,Wunderground v.1.15,2013-08-02 07:10:00,
2013-08-02 03:20:00,80.2,78.0,29.91,East,101,0.0,14.0,93,0.00,,,0.00,Wunderground v.1.15,2013-08-02 07:20:00,
2013-08-02 03:25:00,80.0,77.8,29.91,East,101,0.0,14.0,93,0.00,,,0.00,Wunderground v.1.15,2013-08-02 07:25:00,
2013-08-02 03:35:00,79.6,77.4,29.91,ESE,102,0.0,14.0,93,0.00,,,0.00,Wunderground v.1.15,2013-08-02 07:35:00,
2013-08-02 03:40:00,79.6,77.7,29.91,ESE,102,0.0,14.0,94,0.00,,,0.00,Wunderground v.1.15,2013-08-02 07:40:00,
2013-08-02 03:50:00,79.7,77.8,29.91,ESE,102,0.0,14.0,94,0.00,,,0.00,Wunderground v.1.15,2013-08-02 07:50:00,
2013-08-02 03:55:00,79.8,77.9,29.91,ESE,102,0.0,14.0,94,0.00,,,0.00,Wunderground v.1.15,2013-08-02 07:55:00,
2013-08-02 04:00:00,79.6,77.7,29.91,ESE,102,0.0,14.0,94,0.00,,,0.00,Wunderground v.1.15,2013-08-02 08:00:00,
2013-08-02 04:10:00,79.3,77.1,29.91,ESE,102,0.0,14.0,93,0.00,,,0.00,Wunderground v.1.15,2013-08-02 08:10:00,
2013-08-02 04:15:00,79.3,77.4,29.92,ESE,102,0.0,14.0,94,0.00,,,0.00,Wunderground v.1.15,2013-08-02 08:15:00,
2013-08-02 04:25:00,79.3,77.4,29.92,East,101,0.0,14.0,94,0.00,,,0.00,Wunderground v.1.15,2013-08-02 08:25:00,
2013-08-02 04:35:00,79.4,77.5,29.92,East,101,0.0,14.0,94,0.00,,,0.00,Wunderground v.1.15,2013-08-02 08:35:00,
2013-08-02 04:40:00,79.4,77.8,29.92,East,79,0.0,14.0,95,0.00,,,0.00,Wunderground v.1.15,2013-08-02 08:40:00,
2013-08-02 04:50:00,79.5,77.9,29.93,NNW,338,0.0,14.0,95,0.00,,,0.00,Wunderground v.1.15,2013-08-02 08:50:00,
2013-08-02 05:00:00,79.7,78.1,29.92,North,360,0.0,14.0,95,0.00,,,0.00,Wunderground v.1.15,2013-08-02 09:00:00,
2013-08-02 05:05:00,79.9,78.3,29.93,North,5,0.0,14.0,95,0.00,,,0.00,Wunderground v.1.15,2013-08-02 09:05:00,
2013-08-02 05:10:00,80.2,78.6,29.93,North,360,1.0,1.0,95,0.00,,,0.00,Wunderground v.1.15,2013-08-02 09:10:00,
2013-08-02 05:20:00,80.1,78.9,29.93,NNE,20,6.0,14.0,96,0.00,,,0.00,Wunderground v.1.15,2013-08-02 09:20:00,
2013-08-02 05:25:00,80.1,78.9,29.93,NNE,13,7.0,14.0,96,0.00,,,0.00,Wunderground v.1.15,2013-08-02 09:25:00,
2013-08-02 05:35:00,80.1,78.5,29.93,NNE,33,2.0,14.0,95,0.00,,,0.00,Wunderground v.1.15,2013-08-02 09:35:00,
2013-08-02 05:40:00,80.1,78.5,29.93,NNE,30,0.0,14.0,95,0.00,,,0.00,Wunderground v.1.15,2013-08-02 09:40:00,
2013-08-02 05:45:00,80.2,78.6,29.93,NNE,21,1.0,14.0,95,0.00,,,0.00,Wunderground v.1.15,2013-08-02 09:45:00,
2013-08-02 05:55:00,80.4,78.8,29.93,NNE,33,3.0,14.0,95,0.00,,,0.00,Wunderground v.1.15,2013-08-02 09:55:00,
2013-08-02 06:00:00,80.4,78.8,29.93,NNE,30,7.0,14.0,95,0.00,,,0.00,Wunderground v.1.15,2013-08-02 10:00:00,
2013-08-02 06:10:00,80.6,79.0,29.94,NNE,29,7.0,7.0,95,0.00,,,0.00,Wunderground v.1.15,2013-08-02 10:10:00,
2013-08-02 06:15:00,80.5,78.9,29.94,NNE,24,6.0,14.0,95,0.00,,,0.00,Wunderground v.1.15,2013-08-02 10:15:00,
2013-08-02 06:20:00,80.4,78.8,29.94,NNE,23,3.0,3.0,95,0.00,,,0.00,Wunderground v.1.15,2013-08-02 10:20:00,
2013-08-02 06:25:00,80.6,79.0,29.94,NNE,29,0.0,14.0,95,0.00,,,0.00,Wunderground v.1.15,2013-08-02 10:25:00,
2013-08-02 06:35:00,80.5,78.9,29.94,NNE,22,0.0,14.0,95,0.00,,,0.00,Wunderground v.1.15,2013-08-02 10:35:00,
2013-08-02 06:40:00,80.8,79.2,29.94,NNE,29,3.0,14.0,95,0.00,,,0.00,Wunderground v.1.15,2013-08-02 10:40:00,
2013-08-02 06:50:00,80.7,79.1,29.94,NNE,22,5.0,14.0,95,0.00,,,0.00,Wunderground v.1.15,2013-08-02 10:50:00,
2013-08-02 06:55:00,80.7,79.1,29.94,NNE,23,6.0,14.0,95,0.00,,,0.00,Wunderground v.1.15,2013-08-02 10:55:00,
2013-08-02 07:05:00,80.4,78.8,29.94,NNE,22,6.0,14.0,95,0.00,,,0.00,Wunderground v.1.15,2013-08-02 11:05:00,
2013-08-02 07:10:00,80.4,79.2,29.94,NNE,22,7.0,7.0,96,0.00,,,0.00,Wunderground v.1.15,2013-08-02 11:10:00,
2013-08-02 07:20:00,80.5,79.3,29.94,NNE,32,8.0,14.0,96,0.00,,,0.00,Wunderground v.1.15,2013-08-02 11:20:00,
2013-08-02 07:25:00,80.4,78.8,29.94,NE,43,8.0,14.0,95,0.00,,,0.00,Wunderground v.1.15,2013-08-02 11:25:00,
2013-08-02 07:30:00,80.4,78.5,29.94,NE,42,8.0,8.0,94,0.00,,,0.00,Wunderground v.1.15,2013-08-02 11:30:00,
2013-08-02 07:35:00,80.6,78.7,29.94,NNE,24,6.0,14.0,94,0.00,,,0.00,Wunderground v.1.15,2013-08-02 11:35:00,
2013-08-02 07:40:00,80.8,78.6,29.95,NNE,21,6.0,14.0,93,0.00,,,0.00,Wunderground v.1.15,2013-08-02 11:40:00,
2013-08-02 07:50:00,81.2,79.3,29.95,NNE,22,7.0,14.0,94,0.00,,,0.00,Wunderground v.1.15,2013-08-02 11:50:00,
2013-08-02 07:55:00,80.9,79.0,29.95,NNE,19,9.0,14.0,94,0.00,,,0.00,Wunderground v.1.15,2013-08-02 11:55:00,
2013-08-02 08:05:00,81.0,79.1,29.95,NNE,19,9.0,14.0,94,0.00,,,0.00,Wunderground v.1.15,2013-08-02 12:05:00,
2013-08-02 08:10:00,80.9,79.0,29.95,NNE,24,9.0,9.0,94,0.00,,,0.00,Wunderground v.1.15,2013-08-02 12:10:00,
2013-08-02 08:20:00,80.9,78.7,29.95,NNE,21,8.0,8.0,93,0.00,,,0.00,Wunderground v.1.15,2013-08-02 12:20:00,
2013-08-02 08:25:00,81.1,78.6,29.96,NNE,22,8.0,14.0,92,0.00,,,0.00,Wunderground v.1.15,2013-08-02 12:25:00,
2013-08-02 08:35:00,81.2,78.7,29.96,NNE,30,8.0,14.0,92,0.00,,,0.00,Wunderground v.1.15,2013-08-02 12:35:00,
2013-08-02 08:40:00,81.3,78.8,29.96,NE,36,8.0,8.0,92,0.00,,,0.00,Wunderground v.1.15,2013-08-02 12:40:00,
2013-08-02 08:50:00,81.3,78.8,29.97,NNE,15,8.0,14.0,92,0.00,,,0.00,Wunderground v.1.15,2013-08-02 12:50:00,
2013-08-02 08:55:00,81.4,78.9,29.97,NNE,21,8.0,14.0,92,0.00,,,0.00,Wunderground v.1.15,2013-08-02 12:55:00,
2013-08-02 09:00:00,81.2,78.7,29.97,NNE,32,8.0,14.0,92,0.00,,,0.00,Wunderground v.1.15,2013-08-02 13:00:00,
2013-08-02 09:10:00,81.4,78.9,29.97,NNE,26,8.0,8.0,92,0.00,,,0.00,Wunderground v.1.15,2013-08-02 13:10:00,
2013-08-02 09:15:00,81.3,79.1,29.98,NNE,30,8.0,14.0,93,0.00,,,0.00,Wunderground v.1.15,2013-08-02 13:15:00,
2013-08-02 09:25:00,81.4,78.5,29.97,NNE,26,9.0,14.0,91,0.00,,,0.00,Wunderground v.1.15,2013-08-02 13:25:00,
2013-08-02 09:30:00,81.6,78.4,29.97,NNE,28,9.0,14.0,90,0.00,,,0.00,Wunderground v.1.15,2013-08-02 13:30:00,
2013-08-02 09:35:00,81.8,78.6,29.98,NNE,22,8.0,14.0,90,0.00,,,0.00,Wunderground v.1.15,2013-08-02 13:35:00,
2013-08-02 09:45:00,81.7,78.1,29.98,NNE,33,9.0,14.0,89,0.00,,,0.00,Wunderground v.1.15,2013-08-02 13:45:00,
2013-08-02 09:50:00,81.8,78.6,29.97,NNE,22,9.0,9.0,90,0.00,,,0.00,Wunderground v.1.15,2013-08-02 13:50:00,
2013-08-02 09:55:00,81.7,78.5,29.98,NNE,22,9.0,11.0,90,0.00,,,0.00,Wunderground v.1.15,2013-08-02 13:55:00,
2013-08-02 10:05:00,81.6,78.0,29.98,NNE,32,11.0,14.0,89,0.00,,,0.00,Wunderground v.1.15,2013-08-02 14:05:00,
2013-08-02 10:10:00,81.7,78.1,29.98,NNE,30,13.0,14.0,89,0.00,,,0.00,Wunderground v.1.15,2013-08-02 14:10:00,
2013-08-02 10:20:00,81.7,77.8,29.98,NNE,32,12.0,14.0,88,0.00,,,0.00,Wunderground v.1.15,2013-08-02 14:20:00,
2013-08-02 10:25:00,81.6,77.7,29.98,NNE,33,12.0,14.0,88,0.00,,,0.00,Wunderground v.1.15,2013-08-02 14:25:00,
2013-08-02 10:35:00,81.6,77.7,29.98,NE,46,10.0,14.0,88,0.00,,,0.00,Wunderground v.1.15,2013-08-02 14:35:00,
2013-08-02 10:40:00,81.6,78.0,29.99,NE,34,8.0,8.0,89,0.00,,,0.00,Wunderground v.1.15,2013-08-02 14:40:00,
2013-08-02 10:45:00,81.5,77.6,29.98,NE,55,7.0,14.0,88,0.00,,,0.00,Wunderground v.1.15,2013-08-02 14:45:00,
2013-08-02 10:55:00,81.4,77.5,29.98,NE,55,8.0,14.0,88,0.00,,,0.00,Wunderground v.1.15,2013-08-02 14:55:00,
2013-08-02 11:00:00,81.5,77.9,29.99,NE,47,8.0,14.0,89,0.00,,,0.00,Wunderground v.1.15,2013-08-02 15:00:00,
2013-08-02 11:10:00,81.5,77.6,29.99,NE,45,8.0,14.0,88,0.00,,,0.00,Wunderground v.1.15,2013-08-02 15:10:00,
2013-08-02 11:15:00,81.5,77.6,30.00,NE,54,8.0,14.0,88,0.00,,,0.00,Wunderground v.1.15,2013-08-02 15:15:00,
2013-08-02 11:20:00,81.4,77.8,30.00,NNE,26,8.0,8.0,89,0.00,,,0.00,Wunderground v.1.15,2013-08-02 15:20:00,
2013-08-02 11:25:00,81.5,77.9,29.99,NE,49,8.0,14.0,89,0.00,,,0.00,Wunderground v.1.15,2013-08-02 15:25:00,
2013-08-02 11:35:00,81.4,77.8,29.99,NE,54,9.0,10.0,89,0.00,,,0.00,Wunderground v.1.15,2013-08-02 15:35:00,
2013-08-02 11:40:00,81.6,78.4,29.99,NNE,17,9.0,9.0,90,0.00,,,0.00,Wunderground v.1.15,2013-08-02 15:40:00,
2013-08-02 11:50:00,81.7,77.8,29.99,NNE,18,8.0,14.0,88,0.00,,,0.00,Wunderground v.1.15,2013-08-02 15:50:00,
2013-08-02 11:55:00,81.8,77.9,29.99,NE,39,7.0,14.0,88,0.00,,,0.00,Wunderground v.1.15,2013-08-02 15:55:00,
2013-08-02 12:05:00,82.0,77.7,29.99,NE,40,0.0,14.0,87,0.00,,,0.00,Wunderground v.1.15,2013-08-02 16:05:00,
2013-08-02 12:10:00,82.3,78.4,29.99,NNE,30,0.0,14.0,88,0.00,,,0.00,Wunderground v.1.15,2013-08-02 16:10:00,
2013-08-02 12:20:00,82.5,78.2,30.00,NE,41,4.0,14.0,87,0.00,,,0.00,Wunderground v.1.15,2013-08-02 16:20:00,
2013-08-02 12:25:00,82.7,78.4,30.00,NE,37,6.0,14.0,87,0.00,,,0.00,Wunderground v.1.15,2013-08-02 16:25:00,
2013-08-02 12:35:00,82.9,78.6,30.00,NE,40,7.0,14.0,87,0.00,,,0.00,Wunderground v.1.15,2013-08-02 16:35:00,
2013-08-02 12:40:00,82.9,78.3,30.00,NE,44,6.0,14.0,86,0.00,,,0.00,Wunderground v.1.15,2013-08-02 16:40:00,
2013-08-02 12:45:00,82.9,78.3,30.00,NE,49,6.0,14.0,86,0.00,,,0.00,Wunderground v.1.15,2013-08-02 16:45:00,
2013-08-02 12:55:00,82.8,77.8,30.00,NE,52,7.0,14.0,85,0.00,,,0.00,Wunderground v.1.15,2013-08-02 16:55:00,
2013-08-02 13:00:00,82.9,77.6,30.00,NE,55,7.0,14.0,84,0.00,,,0.00,Wunderground v.1.15,2013-08-02 17:00:00,
2013-08-02 13:10:00,83.4,77.7,30.00,NE,46,8.0,14.0,83,0.00,,,0.00,Wunderground v.1.15,2013-08-02 17:10:00,
2013-08-02 13:15:00,83.4,77.0,30.00,ENE,59,9.0,14.0,81,0.00,,,0.00,Wunderground v.1.15,2013-08-02 17:15:00,
2013-08-02 13:20:00,83.6,77.1,30.00,NE,49,9.0,9.0,81,0.00,,,0.00,Wunderground v.1.15,2013-08-02 17:20:00,
2013-08-02 13:30:00,84.1,77.3,30.00,ENE,68,7.0,7.0,80,0.00,,,0.00,Wunderground v.1.15,2013-08-02 17:30:00,
2013-08-02 13:35:00,84.3,77.1,30.00,NE,56,6.0,14.0,79,0.00,,,0.00,Wunderground v.1.15,2013-08-02 17:35:00,
2013-08-02 13:45:00,84.6,77.0,30.00,NE,46,2.0,5.0,78,0.00,,,0.00,Wunderground v.1.15,2013-08-02 17:45:00,
2013-08-02 13:50:00,84.5,77.3,30.00,ENE,62,4.0,14.0,79,0.00,,,0.00,Wunderground v.1.15,2013-08-02 17:50:00,
2013-08-02 13:55:00,84.6,77.0,29.99,NE,45,6.0,14.0,78,0.00,,,0.00,Wunderground v.1.15,2013-08-02 17:55:00,
2013-08-02 14:05:00,84.7,77.1,29.99,NE,55,7.0,14.0,78,0.00,,,0.00,Wunderground v.1.15,2013-08-02 18:05:00,
2013-08-02 14:10:00,84.8,77.2,29.99,NE,44,7.0,14.0,78,0.00,,,0.00,Wunderground v.1.15,2013-08-02 18:10:00,
2013-08-02 14:20:00,85.3,76.5,29.99,East,98,6.0,6.0,75,0.00,,,0.00,Wunderground v.1.15,2013-08-02 18:20:00,
2013-08-02 14:25:00,85.5,77.1,29.99,East,98,3.0,14.0,76,0.00,,,0.00,Wunderground v.1.15,2013-08-02 18:25:00,
2013-08-02 14:35:00,86.0,78.3,29.99,ESE,117,1.0,5.0,78,0.00,,,0.00,Wunderground v.1.15,2013-08-02 18:35:00,
2013-08-02 14:40:00,86.5,79.2,29.99,South,175,4.0,14.0,79,0.00,,,0.00,Wunderground v.1.15,2013-08-02 18:40:00,
2013-08-02 14:50:00,87.4,79.7,29.99,South,169,6.0,14.0,78,0.00,,,0.00,Wunderground v.1.15,2013-08-02 18:50:00,
2013-08-02 14:55:00,87.1,79.4,29.98,SSE,154,7.0,14.0,78,0.00,,,0.00,Wunderground v.1.15,2013-08-02 18:55:00,
2013-08-02 15:00:00,87.0,79.3,29.98,South,186,7.0,7.0,78,0.00,,,0.00,Wunderground v.1.15,2013-08-02 19:00:00,
2013-08-02 15:10:00,86.8,79.5,29.98,SSE,150,7.0,14.0,79,0.00,,,0.00,Wunderground v.1.15,2013-08-02 19:10:00,
2013-08-02 15:15:00,86.3,78.6,29.98,SSE,147,9.0,14.0,78,0.00,,,0.00,Wunderground v.1.15,2013-08-02 19:15:00,
2013-08-02 15:20:00,86.3,78.6,29.98,South,171,9.0,9.0,78,0.00,,,0.00,Wunderground v.1.15,2013-08-02 19:20:00,
2013-08-02 15:30:00,86.9,78.8,29.98,South,184,8.0,14.0,77,0.00,,,0.00,Wunderground v.1.15,2013-08-02 19:30:00,
2013-08-02 15:35:00,87.3,79.6,29.98,SSE,161,9.0,14.0,78,0.00,,,0.00,Wunderground v.1.15,2013-08-02 19:35:00,
2013-08-02 15:40:00,87.7,80.4,29.98,South,184,9.0,9.0,79,0.00,,,0.00,Wunderground v.1.15,2013-08-02 19:40:00,
2013-08-02 15:50:00,87.7,79.6,29.98,South,186,8.0,8.0,77,0.00,,,0.00,Wunderground v.1.15,2013-08-02 19:50:00,
2013-08-02 15:55:00,87.9,79.4,29.97,SSE,162,8.0,14.0,76,0.00,,,0.00,Wunderground v.1.15,2013-08-02 19:55:00,
2013-08-02 16:05:00,88.0,80.3,29.97,South,187,8.0,14.0,78,0.00,,,0.00,Wunderground v.1.15,2013-08-02 20:05:00,
2013-08-02 16:10:00,87.7,79.2,29.97,South,184,8.0,8.0,76,0.00,,,0.00,Wunderground v.1.15,2013-08-02 20:10:00,
2013-08-02 16:20:00,87.6,79.9,29.97,SSW,196,7.0,14.0,78,0.00,,,0.00,Wunderground v.1.15,2013-08-02 20:20:00,
2013-08-02 16:25:00,87.8,80.5,29.97,SSE,163,8.0,14.0,79,0.00,,,0.00,Wunderground v.1.15,2013-08-02 20:25:00,
2013-08-02 16:30:00,87.8,79.7,29.96,SSE,158,7.0,7.0,77,0.00,,,0.00,Wunderground v.1.15,2013-08-02 20:30:00,
2013-08-02 16:40:00,87.6,79.9,29.96,South,179,7.0,14.0,78,0.00,,,0.00,Wunderground v.1.15,2013-08-02 20:40:00,
2013-08-02 16:50:00,87.7,80.4,29.96,South,184,8.0,8.0,79,0.00,,,0.00,Wunderground v.1.15,2013-08-02 20:50:00,
2013-08-02 16:55:00,87.8,80.1,29.96,South,173,8.0,14.0,78,0.00,,,0.00,Wunderground v.1.15,2013-08-02 20:55:00,
2013-08-02 17:05:00,87.5,79.8,29.95,South,189,8.0,14.0,78,0.00,,,0.00,Wunderground v.1.15,2013-08-02 21:05:00,
2013-08-02 17:10:00,87.5,79.8,29.95,SSW,197,7.0,7.0,78,0.00,,,0.00,Wunderground v.1.15,2013-08-02 21:10:00,
2013-08-02 17:15:00,87.5,79.4,29.95,SSW,192,7.0,10.0,77,0.00,,,0.00,Wunderground v.1.15,2013-08-02 21:15:00,
2013-08-02 17:20:00,87.4,79.7,29.95,SSW,198,8.0,14.0,78,0.00,,,0.00,Wunderground v.1.15,2013-08-02 21:20:00,
2013-08-02 17:25:00,87.4,79.3,29.95,South,186,8.0,14.0,77,0.00,,,0.00,Wunderground v.1.15,2013-08-02 21:25:00,
2013-08-02 17:30:00,87.5,79.8,29.95,South,173,8.0,14.0,78,0.00,,,0.00,Wunderground v.1.15,2013-08-02 21:30:00,
2013-08-02 17:35:00,87.6,79.9,29.95,South,186,8.0,14.0,78,0.00,,,0.00,Wunderground v.1.15,2013-08-02 21:35:00,
2013-08-02 17:40:00,87.6,79.9,29.95,SSW,203,8.0,14.0,78,0.00,,,0.00,Wunderground v.1.15,2013-08-02 21:40:00,
2013-08-02 17:50:00,87.5,79.8,29.95,SSW,197,9.0,14.0,78,0.00,,,0.00,Wunderground v.1.15,2013-08-02 21:50:00,
2013-08-02 17:55:00,87.3,80.0,29.95,SSE,153,9.0,14.0,79,0.00,,,0.00,Wunderground v.1.15,2013-08-02 21:55:00,
2013-08-02 18:05:00,87.2,79.9,29.95,SSW,203,9.0,14.0,79,0.00,,,0.00,Wunderground v.1.15,2013-08-02 22:05:00,
2013-08-02 18:10:00,87.0,79.3,29.95,SSW,197,8.0,14.0,78,0.00,,,0.00,Wunderground v.1.15,2013-08-02 22:10:00,
2013-08-02 18:20:00,86.8,79.5,29.95,South,184,8.0,14.0,79,0.00,,,0.00,Wunderground v.1.15,2013-08-02 22:20:00,
2013-08-02 18:25:00,86.7,79.0,29.95,SSW,196,8.0,14.0,78,0.00,,,0.00,Wunderground v.1.15,2013-08-02 22:25:00,
2013-08-02 18:35:00,86.9,79.6,29.96,SSW,204,7.0,14.0,79,0.00,,,0.00,Wunderground v.1.15,2013-08-02 22:35:00,
2013-08-02 18:45:00,86.7,79.4,29.95,SSW,211,7.0,14.0,79,0.00,,,0.00,Wunderground v.1.15,2013-08-02 22:45:00,
2013-08-02 18:50:00,86.5,79.2,29.96,South,189,7.0,14.0,79,0.00,,,0.00,Wunderground v.1.15,2013-08-02 22:50:00,
2013-08-02 19:00:00,86.2,78.9,29.95,SW,227,7.0,14.0,79,0.00,,,0.00,Wunderground v.1.15,2013-08-02 23:00:00,
2013-08-02 19:05:00,86.1,79.6,29.95,SSW,207,7.0,14.0,81,0.00,,,0.00,Wunderground v.1.15,2013-08-02 23:05:00,
2013-08-02 19:10:00,86.0,79.5,29.95,South,186,6.0,14.0,81,0.00,,,0.00,Wunderground v.1.15,2013-08-02 23:10:00,
2013-08-02 19:20:00,85.9,79.8,29.95,SSW,198,6.0,14.0,82,0.00,,,0.00,Wunderground v.1.15,2013-08-02 23:20:00,
2013-08-02 19:25:00,85.7,79.6,29.95,SSW,207,7.0,14.0,82,0.00,,,0.00,Wunderground v.1.15,2013-08-02 23:25:00,
2013-08-02 19:35:00,85.5,79.7,29.95,SSW,211,6.0,14.0,83,0.00,,,0.00,Wunderground v.1.15,2013-08-02 23:35:00,
2013-08-02 19:40:00,85.5,79.7,29.96,SSW,196,4.0,14.0,83,0.00,,,0.00,Wunderground v.1.15,2013-08-02 23:40:00,
2013-08-02 19:45:00,85.4,79.6,29.96,SW,226,4.0,14.0,83,0.00,,,0.00,Wunderground v.1.15,2013-08-02 23:45:00,
2013-08-02 19:55:00,85.2,79.4,29.96,SW,215,6.0,14.0,83,0.00,,,0.00,Wunderground v.1.15,2013-08-02 23:55:00,
2013-08-02 20:00:00,85.1,79.4,29.96,SSW,207,6.0,6.0,83,0.00,,,0.00,Wunderground v.1.15,2013-08-03 00:00:00,
2013-08-02 20:05:00,85.0,79.3,29.96,WSW,248,5.0,14.0,83,0.00,,,0.00,Wunderground v.1.15,2013-08-03 00:05:00,
2013-08-02 20:15:00,84.8,79.1,29.96,SW,229,4.0,14.0,83,0.00,,,0.00,Wunderground v.1.15,2013-08-03 00:15:00,
2013-08-02 20:20:00,84.7,79.3,29.96,SW,232,4.0,14.0,84,0.00,,,0.00,Wunderground v.1.15,2013-08-03 00:20:00,
2013-08-02 20:30:00,84.4,79.0,29.97,WSW,238,4.0,14.0,84,0.00,,,0.00,Wunderground v.1.15,2013-08-03 00:30:00,
2013-08-02 20:35:00,84.3,78.9,29.97,SW,223,5.0,14.0,84,0.00,,,0.00,Wunderground v.1.15,2013-08-03 00:35:00,
2013-08-02 20:40:00,84.3,79.3,29.97,SW,236,2.0,2.0,85,0.00,,,0.00,Wunderground v.1.15,2013-08-03 00:40:00,
2013-08-02 20:50:00,84.1,79.1,29.97,West,264,0.0,14.0,85,0.00,,,0.00,Wunderground v.1.15,2013-08-03 00:50:00,
2013-08-02 20:55:00,84.1,79.1,29.97,SW,223,0.0,14.0,85,0.00,,,0.00,Wunderground v.1.15,2013-08-03 00:55:00,
2013-08-02 21:05:00,84.0,79.0,29.98,WSW,248,1.0,6.0,85,0.00,,,0.00,Wunderground v.1.15,2013-08-03 01:05:00,
2013-08-02 21:10:00,83.9,78.9,29.98,WSW,253,1.0,1.0,85,0.00,,,0.00,Wunderground v.1.15,2013-08-03 01:10:00,
2013-08-02 21:20:00,83.9,78.9,29.98,SW,234,1.0,14.0,85,0.00,,,0.00,Wunderground v.1.15,2013-08-03 01:20:00,
2013-08-02 21:25:00,84.0,79.4,29.98,SW,225,3.0,14.0,86,0.00,,,0.00,Wunderground v.1.15,2013-08-03 01:25:00,
2013-08-02 21:30:00,84.0,79.4,29.98,SW,220,4.0,4.0,86,0.00,,,0.00,Wunderground v.1.15,2013-08-03 01:30:00,
2013-08-02 21:35:00,84.2,79.6,29.98,SSW,208,4.0,14.0,86,0.00,,,0.00,Wunderground v.1.15,2013-08-03 01:35:00,
2013-08-02 21:40:00,84.2,79.6,29.98,SSW,210,4.0,14.0,86,0.00,,,0.00,Wunderground v.1.15,2013-08-03 01:40:00,
2013-08-02 21:50:00,84.1,79.5,29.99,SW,215,4.0,4.0,86,0.00,,,0.00,Wunderground v.1.15,2013-08-03 01:50:00,
2013-08-02 21:55:00,84.0,79.4,29.99,SW,234,4.0,14.0,86,0.00,,,0.00,Wunderground v.1.15,2013-08-03 01:55:00,
2013-08-02 22:05:00,83.9,79.3,29.99,SW,222,0.0,14.0,86,0.00,,,0.00,Wunderground v.1.15,2013-08-03 02:05:00,
2013-08-02 22:10:00,83.8,79.2,29.99,SW,222,0.0,14.0,86,0.00,,,0.00,Wunderground v.1.15,2013-08-03 02:10:00,
2013-08-02 22:20:00,83.8,79.5,30.00,SW,231,0.0,14.0,87,0.00,,,0.00,Wunderground v.1.15,2013-08-03 02:20:00,
2013-08-02 22:25:00,83.8,79.5,30.00,SW,216,0.0,14.0,87,0.00,,,0.00,Wunderground v.1.15,2013-08-03 02:25:00,
2013-08-02 22:35:00,83.8,79.5,30.00,SSW,198,0.0,14.0,87,0.00,,,0.00,Wunderground v.1.15,2013-08-03 02:35:00,
2013-08-02 22:40:00,83.8,79.5,30.01,SW,217,0.0,14.0,87,0.00,,,0.00,Wunderground v.1.15,2013-08-03 02:40:00,
2013-08-02 22:50:00,83.8,79.5,30.01,SW,229,0.0,14.0,87,0.00,,,0.00,Wunderground v.1.15,2013-08-03 02:50:00,
2013-08-02 22:55:00,83.8,79.5,30.01,SW,229,0.0,14.0,87,0.00,,,0.00,Wunderground v.1.15,2013-08-03 02:55:00,
2013-08-02 23:05:00,83.7,79.4,30.00,SW,228,0.0,14.0,87,0.00,,,0.00,Wunderground v.1.15,2013-08-03 03:05:00,
2013-08-02 23:10:00,83.7,79.4,30.00,SW,221,0.0,14.0,87,0.00,,,0.00,Wunderground v.1.15,2013-08-03 03:10:00,
2013-08-02 23:20:00,83.8,79.5,30.01,SW,216,0.0,14.0,87,0.00,,,0.00,Wunderground v.1.15,2013-08-03 03:20:00,
2013-08-02 23:25:00,83.8,79.5,30.01,SW,216,0.0,14.0,87,0.00,,,0.00,Wunderground v.1.15,2013-08-03 03:25:00,
2013-08-02 23:30:00,83.7,79.1,30.01,SW,217,0.0,14.0,86,0.00,,,0.00,Wunderground v.1.15,2013-08-03 03:30:00,
2013-08-02 23:40:00,83.8,79.2,30.01,SSW,200,0.0,14.0,86,0.00,,,0.00,Wunderground v.1.15,2013-08-03 03:40:00,
2013-08-02 23:50:00,83.6,79.0,30.01,South,187,1.0,14.0,86,0.00,,,0.00,Wunderground v.1.15,2013-08-03 03:50:00,
2013-08-02 23:55:00,83.5,78.9,30.01,SSW,193,3.0,14.0,86,0.00,,,0.00,Wunderground v.1.15,2013-08-03 03:55:00,